createdAt,value
2018-01-29T00:00:32.852Z,88.22
2018-01-29T00:01:08.103Z,88.41
2018-01-29T00:01:43.808Z,88.60
2018-01-29T00:02:19.205Z,88.41
2018-01-29T00:02:54.533Z,88.60
2018-01-29T00:03:29.931Z,88.60
2018-01-29T00:04:05.561Z,88.22
2018-01-29T00:04:40.965Z,88.12
2018-01-29T00:05:16.510Z,88.22
2018-01-29T00:05:51.809Z,87.93
2018-01-29T00:06:27.510Z,88.31
2018-01-29T00:07:03.006Z,87.55
2018-01-29T00:07:38.209Z,87.55
2018-01-29T00:08:13.642Z,87.65
2018-01-29T00:08:48.936Z,87.55
2018-01-29T00:09:24.366Z,87.36
2018-01-29T00:09:59.660Z,86.98
2018-01-29T00:10:34.966Z,87.36
2018-01-29T00:11:10.456Z,86.88
2018-01-29T00:11:45.854Z,86.79
2018-01-29T00:12:21.064Z,86.79
2018-01-29T00:12:56.362Z,86.60
2018-01-29T00:13:31.700Z,86.60
2018-01-29T00:14:07.100Z,86.22
2018-01-29T00:14:42.645Z,86.22
2018-01-29T00:15:18.341Z,85.46
2018-01-29T00:15:53.642Z,85.84
2018-01-29T00:16:29.053Z,85.55
2018-01-29T00:17:04.250Z,85.17
2018-01-29T00:17:39.467Z,85.17
2018-01-29T00:18:14.949Z,85.36
2018-01-29T00:18:50.256Z,84.50
2018-01-29T00:19:25.581Z,84.60
2018-01-29T00:20:00.800Z,84.41
2018-01-29T00:20:36.301Z,83.84
2018-01-29T00:21:11.807Z,83.93
2018-01-29T00:21:47.409Z,83.84
2018-01-29T00:22:22.709Z,83.74
2018-01-29T00:22:58.338Z,83.55
2018-01-29T00:23:33.530Z,83.74
2018-01-29T00:24:08.541Z,83.07
2018-01-29T00:24:44.039Z,83.26
2018-01-29T00:25:19.368Z,82.79
2018-01-29T00:25:54.480Z,82.69
2018-01-29T00:26:29.777Z,82.69
2018-01-29T00:27:05.184Z,82.41
2018-01-29T00:27:40.484Z,82.21
2018-01-29T00:28:15.915Z,82.60
2018-01-29T00:28:51.122Z,82.21
2018-01-29T00:29:26.824Z,82.60
2018-01-29T00:30:02.229Z,82.12
2018-01-29T00:30:39.655Z,82.12
2018-01-29T00:31:14.859Z,82.41
2018-01-29T00:31:50.054Z,82.21
2018-01-29T00:32:25.255Z,81.74
2018-01-29T00:33:00.460Z,82.31
2018-01-29T00:33:35.583Z,81.65
2018-01-29T00:34:10.880Z,81.84
2018-01-29T00:34:45.986Z,81.65
2018-01-29T00:35:21.282Z,81.65
2018-01-29T00:35:56.611Z,81.07
2018-01-29T00:36:32.111Z,81.46
2018-01-29T00:37:07.511Z,81.26
2018-01-29T00:37:43.008Z,81.36
2018-01-29T00:38:18.310Z,81.46
2018-01-29T00:38:53.835Z,81.26
2018-01-29T00:39:29.339Z,81.46
2018-01-29T00:40:04.341Z,81.07
2018-01-29T00:40:39.848Z,81.26
2018-01-29T00:41:15.381Z,80.79
2018-01-29T00:41:50.883Z,80.79
2018-01-29T00:42:26.187Z,81.07
2018-01-29T00:43:01.680Z,81.17
2018-01-29T00:43:37.280Z,80.60
2018-01-29T00:44:12.582Z,80.88
2018-01-29T00:44:47.781Z,80.41
2018-01-29T00:45:23.086Z,80.88
2018-01-29T00:45:58.510Z,80.88
2018-01-29T00:46:33.852Z,80.50
2018-01-29T00:47:08.953Z,80.69
2018-01-29T00:47:43.952Z,80.50
2018-01-29T00:48:19.200Z,80.69
2018-01-29T00:48:54.407Z,80.69
2018-01-29T00:49:29.814Z,80.79
2018-01-29T00:50:05.112Z,80.79
2018-01-29T00:50:40.410Z,80.50
2018-01-29T00:51:15.606Z,80.69
2018-01-29T00:51:50.944Z,80.69
2018-01-29T00:52:26.140Z,80.88
2018-01-29T00:53:01.439Z,80.50
2018-01-29T00:53:36.868Z,80.02
2018-01-29T00:54:12.464Z,80.79
2018-01-29T00:54:47.974Z,80.69
2018-01-29T00:55:23.375Z,80.31
2018-01-29T00:55:58.873Z,80.22
2018-01-29T00:56:34.277Z,80.02
2018-01-29T00:57:09.507Z,80.02
2018-01-29T00:57:45.018Z,80.22
2018-01-29T00:58:20.414Z,80.02
2018-01-29T00:58:55.656Z,79.93
2018-01-29T00:59:31.046Z,79.83
2018-01-29T01:00:06.544Z,80.22
2018-01-29T01:00:41.942Z,80.02
2018-01-29T01:01:17.150Z,80.12
2018-01-29T01:01:52.653Z,79.83
2018-01-29T01:02:30.478Z,80.12
2018-01-29T01:03:05.785Z,80.31
2018-01-29T01:03:40.787Z,80.41
2018-01-29T01:04:16.188Z,80.41
2018-01-29T01:04:51.709Z,80.02
2018-01-29T01:05:27.015Z,79.93
2018-01-29T01:06:02.213Z,80.02
2018-01-29T01:06:37.509Z,80.12
2018-01-29T01:07:13.214Z,79.93
2018-01-29T01:07:48.746Z,80.31
2018-01-29T01:08:23.945Z,79.83
2018-01-29T01:08:59.362Z,80.02
2018-01-29T01:09:34.755Z,79.83
2018-01-29T01:10:09.964Z,80.02
2018-01-29T01:10:45.354Z,79.93
2018-01-29T01:11:20.855Z,79.74
2018-01-29T01:11:56.252Z,79.46
2018-01-29T01:12:31.566Z,79.64
2018-01-29T01:13:06.797Z,79.55
2018-01-29T01:13:42.420Z,79.83
2018-01-29T01:14:17.918Z,79.46
2018-01-29T01:14:53.517Z,78.98
2018-01-29T01:15:29.121Z,79.27
2018-01-29T01:16:04.315Z,79.07
2018-01-29T01:16:39.513Z,79.36
2018-01-29T01:17:15.012Z,79.55
2018-01-29T01:17:50.313Z,79.46
2018-01-29T01:18:25.850Z,78.98
2018-01-29T01:19:01.075Z,79.83
2018-01-29T01:19:36.278Z,79.36
2018-01-29T01:20:11.475Z,79.27
2018-01-29T01:20:46.878Z,79.17
2018-01-29T01:21:22.176Z,79.17
2018-01-29T01:21:57.372Z,79.17
2018-01-29T01:22:32.776Z,79.07
2018-01-29T01:23:07.983Z,79.07
2018-01-29T01:23:43.605Z,78.98
2018-01-29T01:24:18.633Z,79.36
2018-01-29T01:24:54.132Z,79.17
2018-01-29T01:25:30.037Z,79.17
2018-01-29T01:26:05.530Z,79.36
2018-01-29T01:26:40.736Z,79.55
2018-01-29T01:27:15.926Z,79.55
2018-01-29T01:27:51.327Z,79.17
2018-01-29T01:28:26.623Z,79.36
2018-01-29T01:29:01.953Z,78.98
2018-01-29T01:29:37.257Z,78.98
2018-01-29T01:30:12.752Z,79.17
2018-01-29T01:30:48.867Z,79.55
2018-01-29T01:31:24.259Z,79.17
2018-01-29T01:31:59.466Z,78.98
2018-01-29T01:32:34.967Z,79.36
2018-01-29T01:33:10.275Z,78.98
2018-01-29T01:33:46.289Z,79.36
2018-01-29T01:34:21.792Z,79.17
2018-01-29T01:34:57.102Z,79.17
2018-01-29T01:35:32.807Z,79.55
2018-01-29T01:36:08.400Z,79.07
2018-01-29T01:36:43.994Z,79.27
2018-01-29T01:37:19.099Z,79.46
2018-01-29T01:37:54.401Z,78.88
2018-01-29T01:38:30.005Z,79.55
2018-01-29T01:39:05.458Z,79.07
2018-01-29T01:39:40.752Z,79.27
2018-01-29T01:40:16.253Z,79.17
2018-01-29T01:40:51.652Z,79.27
2018-01-29T01:41:26.971Z,79.17
2018-01-29T01:42:02.466Z,79.27
2018-01-29T01:42:37.870Z,78.88
2018-01-29T01:43:13.471Z,78.78
2018-01-29T01:43:48.677Z,78.88
2018-01-29T01:44:24.332Z,78.98
2018-01-29T01:44:59.830Z,78.78
2018-01-29T01:45:35.133Z,79.27
2018-01-29T01:46:11.331Z,79.36
2018-01-29T01:46:46.537Z,78.98
2018-01-29T01:47:21.744Z,79.07
2018-01-29T01:47:57.041Z,79.27
2018-01-29T01:48:32.636Z,79.27
2018-01-29T01:49:08.263Z,78.88
2018-01-29T01:49:43.467Z,78.88
2018-01-29T01:50:18.769Z,79.07
2018-01-29T01:50:53.871Z,78.98
2018-01-29T01:51:28.972Z,78.59
2018-01-29T01:52:04.778Z,78.88
2018-01-29T01:52:39.986Z,78.59
2018-01-29T01:53:15.475Z,78.78
2018-01-29T01:53:51.203Z,78.69
2018-01-29T01:54:26.631Z,78.69
2018-01-29T01:55:02.037Z,79.17
2018-01-29T01:55:37.533Z,78.78
2018-01-29T01:56:12.626Z,78.59
2018-01-29T01:56:48.050Z,78.69
2018-01-29T01:57:23.254Z,78.69
2018-01-29T01:57:58.555Z,78.69
2018-01-29T01:58:34.160Z,78.98
2018-01-29T01:59:09.508Z,78.59
2018-01-29T01:59:44.714Z,78.59
2018-01-29T02:00:19.819Z,78.69
2018-01-29T02:00:55.040Z,78.56
2018-01-29T02:01:30.532Z,78.75
2018-01-29T02:02:05.845Z,78.59
2018-01-29T02:02:41.047Z,78.78
2018-01-29T02:03:16.243Z,78.98
2018-01-29T02:03:51.343Z,78.22
2018-01-29T02:04:26.799Z,78.75
2018-01-29T02:05:02.109Z,78.17
2018-01-29T02:05:37.330Z,78.12
2018-01-29T02:06:12.720Z,78.78
2018-01-29T02:06:48.023Z,78.50
2018-01-29T02:07:23.522Z,78.41
2018-01-29T02:07:58.826Z,78.46
2018-01-29T02:08:34.320Z,78.59
2018-01-29T02:09:09.846Z,78.50
2018-01-29T02:09:45.290Z,78.27
2018-01-29T02:10:20.696Z,78.75
2018-01-29T02:10:55.897Z,78.59
2018-01-29T02:11:31.491Z,78.50
2018-01-29T02:12:06.891Z,78.31
2018-01-29T02:12:42.582Z,78.46
2018-01-29T02:13:17.978Z,78.50
2018-01-29T02:13:53.373Z,78.31
2018-01-29T02:14:28.902Z,78.31
2018-01-29T02:15:04.246Z,78.31
2018-01-29T02:15:40.055Z,78.37
2018-01-29T02:16:15.451Z,78.37
2018-01-29T02:16:51.046Z,78.12
2018-01-29T02:17:26.641Z,78.69
2018-01-29T02:18:02.029Z,78.27
2018-01-29T02:18:37.442Z,78.12
2018-01-29T02:19:12.736Z,78.69
2018-01-29T02:19:48.052Z,78.31
2018-01-29T02:20:23.493Z,78.59
2018-01-29T02:20:58.846Z,78.69
2018-01-29T02:21:34.243Z,78.65
2018-01-29T02:22:09.547Z,78.65
2018-01-29T02:22:44.833Z,78.65
2018-01-29T02:23:20.231Z,78.69
2018-01-29T02:23:55.630Z,78.65
2018-01-29T02:24:30.949Z,78.85
2018-01-29T02:25:06.248Z,78.65
2018-01-29T02:25:41.348Z,79.03
2018-01-29T02:26:16.840Z,78.46
2018-01-29T02:26:52.239Z,78.85
2018-01-29T02:27:27.339Z,79.07
2018-01-29T02:28:02.770Z,78.65
2018-01-29T02:28:38.145Z,78.59
2018-01-29T02:29:13.537Z,78.50
2018-01-29T02:29:48.893Z,78.46
2018-01-29T02:30:24.407Z,78.46
2018-01-29T02:30:59.805Z,78.46
2018-01-29T02:31:35.299Z,78.17
2018-01-29T02:32:10.694Z,78.69
2018-01-29T02:32:45.986Z,78.46
2018-01-29T02:33:21.079Z,78.46
2018-01-29T02:33:56.281Z,78.27
2018-01-29T02:34:31.605Z,78.65
2018-01-29T02:35:06.931Z,78.37
2018-01-29T02:35:42.026Z,78.31
2018-01-29T02:36:17.418Z,78.31
2018-01-29T02:36:53.023Z,78.08
2018-01-29T02:37:28.211Z,78.37
2018-01-29T02:38:03.614Z,78.27
2018-01-29T02:38:38.810Z,78.27
2018-01-29T02:39:14.101Z,78.65
2018-01-29T02:39:49.335Z,78.27
2018-01-29T02:40:24.871Z,77.80
2018-01-29T02:41:00.271Z,78.27
2018-01-29T02:41:35.364Z,78.41
2018-01-29T02:42:10.766Z,78.03
2018-01-29T02:42:45.974Z,78.65
2018-01-29T02:43:21.465Z,78.17
2018-01-29T02:43:56.677Z,78.69
2018-01-29T02:44:31.971Z,78.56
2018-01-29T02:45:07.691Z,78.56
2018-01-29T02:45:43.014Z,78.37
2018-01-29T02:46:18.430Z,78.27
2018-01-29T02:46:53.624Z,78.37
2018-01-29T02:47:29.127Z,77.80
2018-01-29T02:48:04.424Z,78.85
2018-01-29T02:48:39.819Z,78.27
2018-01-29T02:49:15.117Z,78.94
2018-01-29T02:49:50.238Z,78.69
2018-01-29T02:50:25.538Z,78.46
2018-01-29T02:51:00.846Z,78.65
2018-01-29T02:51:36.247Z,78.94
2018-01-29T02:52:11.637Z,78.56
2018-01-29T02:52:46.841Z,78.75
2018-01-29T02:53:22.240Z,78.17
2018-01-29T02:53:57.447Z,79.13
2018-01-29T02:54:32.747Z,78.85
2018-01-29T02:55:08.057Z,78.41
2018-01-29T02:55:43.258Z,78.65
2018-01-29T02:56:18.653Z,78.65
2018-01-29T02:56:53.846Z,78.56
2018-01-29T02:57:29.545Z,78.75
2018-01-29T02:58:04.729Z,78.65
2018-01-29T02:58:40.134Z,78.69
2018-01-29T02:59:15.621Z,78.85
2018-01-29T02:59:50.640Z,78.65
2018-01-29T03:00:25.769Z,79.22
2018-01-29T03:01:01.365Z,78.94
2018-01-29T03:01:36.667Z,79.22
2018-01-29T03:02:12.058Z,78.75
2018-01-29T03:02:47.658Z,78.65
2018-01-29T03:03:22.846Z,78.59
2018-01-29T03:03:58.042Z,78.75
2018-01-29T03:04:33.335Z,78.50
2018-01-29T03:05:08.755Z,78.56
2018-01-29T03:05:44.079Z,77.89
2018-01-29T03:06:19.268Z,78.56
2018-01-29T03:06:54.573Z,78.37
2018-01-29T03:07:29.570Z,78.37
2018-01-29T03:08:04.769Z,78.37
2018-01-29T03:08:39.970Z,78.56
2018-01-29T03:09:15.266Z,78.75
2018-01-29T03:09:50.600Z,78.46
2018-01-29T03:10:25.895Z,78.37
2018-01-29T03:11:01.221Z,78.46
2018-01-29T03:11:36.717Z,78.56
2018-01-29T03:12:12.317Z,78.46
2018-01-29T03:12:47.416Z,78.46
2018-01-29T03:13:22.618Z,78.46
2018-01-29T03:13:58.113Z,77.61
2018-01-29T03:14:33.508Z,78.56
2018-01-29T03:15:08.935Z,78.27
2018-01-29T03:15:44.535Z,78.46
2018-01-29T03:16:20.058Z,78.37
2018-01-29T03:16:55.355Z,78.46
2018-01-29T03:17:30.464Z,77.80
2018-01-29T03:18:05.761Z,78.56
2018-01-29T03:18:40.960Z,77.80
2018-01-29T03:19:16.553Z,77.80
2018-01-29T03:19:51.848Z,77.98
2018-01-29T03:20:27.170Z,77.98
2018-01-29T03:21:02.476Z,77.61
2018-01-29T03:21:37.705Z,78.08
2018-01-29T03:22:13.004Z,77.61
2018-01-29T03:22:48.217Z,77.61
2018-01-29T03:23:23.609Z,77.22
2018-01-29T03:23:59.002Z,76.56
2018-01-29T03:24:34.298Z,76.65
2018-01-29T03:25:09.517Z,76.37
2018-01-29T03:25:44.923Z,76.75
2018-01-29T03:26:20.316Z,76.08
2018-01-29T03:26:55.732Z,76.18
2018-01-29T03:27:31.032Z,76.56
2018-01-29T03:28:06.556Z,76.27
2018-01-29T03:28:41.841Z,76.56
2018-01-29T03:29:17.435Z,76.56
2018-01-29T03:29:52.829Z,76.75
2018-01-29T03:30:28.067Z,76.75
2018-01-29T03:31:03.359Z,76.37
2018-01-29T03:31:38.561Z,76.75
2018-01-29T03:32:13.879Z,76.46
2018-01-29T03:32:48.970Z,76.75
2018-01-29T03:33:24.263Z,76.65
2018-01-29T03:33:59.662Z,76.65
2018-01-29T03:34:34.960Z,76.46
2018-01-29T03:35:10.658Z,76.75
2018-01-29T03:35:45.874Z,76.84
2018-01-29T03:36:21.158Z,76.75
2018-01-29T03:36:56.454Z,77.03
2018-01-29T03:37:31.573Z,76.18
2018-01-29T03:38:06.763Z,77.42
2018-01-29T03:38:41.965Z,76.84
2018-01-29T03:39:17.353Z,77.13
2018-01-29T03:39:52.651Z,77.03
2018-01-29T03:40:28.145Z,77.51
2018-01-29T03:41:03.579Z,77.61
2018-01-29T03:41:38.994Z,77.32
2018-01-29T03:42:14.293Z,77.61
2018-01-29T03:42:49.925Z,77.80
2018-01-29T03:43:25.120Z,77.80
2018-01-29T03:44:00.622Z,77.61
2018-01-29T03:44:36.332Z,77.51
2018-01-29T03:45:12.141Z,78.27
2018-01-29T03:45:47.537Z,78.46
2018-01-29T03:46:22.774Z,78.37
2018-01-29T03:46:57.772Z,78.65
2018-01-29T03:47:32.972Z,77.89
2018-01-29T03:48:08.082Z,78.27
2018-01-29T03:48:43.382Z,78.56
2018-01-29T03:49:18.781Z,78.75
2018-01-29T03:49:54.179Z,79.60
2018-01-29T03:50:29.374Z,79.03
2018-01-29T03:51:04.479Z,79.70
2018-01-29T03:51:40.005Z,79.70
2018-01-29T03:52:15.602Z,80.65
2018-01-29T03:52:51.136Z,80.18
2018-01-29T03:53:26.499Z,80.18
2018-01-29T03:54:01.811Z,81.03
2018-01-29T03:54:37.109Z,81.41
2018-01-29T03:55:12.406Z,80.84
2018-01-29T03:55:47.709Z,81.13
2018-01-29T03:56:23.108Z,81.98
2018-01-29T03:56:58.437Z,81.23
2018-01-29T03:57:33.663Z,81.89
2018-01-29T03:58:08.960Z,81.79
2018-01-29T03:58:44.372Z,82.37
2018-01-29T03:59:19.568Z,82.65
2018-01-29T03:59:54.968Z,83.22
2018-01-29T04:00:30.564Z,84.17
2018-01-29T04:01:06.079Z,83.61
2018-01-29T04:01:41.268Z,83.61
2018-01-29T04:02:16.505Z,83.89
2018-01-29T04:02:51.922Z,83.98
2018-01-29T04:03:27.323Z,83.70
2018-01-29T04:04:02.536Z,84.12
2018-01-29T04:04:37.837Z,84.03
2018-01-29T04:05:13.329Z,83.98
2018-01-29T04:05:48.625Z,84.41
2018-01-29T04:06:23.920Z,84.08
2018-01-29T04:06:59.417Z,84.27
2018-01-29T04:07:34.753Z,83.98
2018-01-29T04:08:10.276Z,84.41
2018-01-29T04:08:45.570Z,85.32
2018-01-29T04:09:20.880Z,85.08
2018-01-29T04:09:56.080Z,85.32
2018-01-29T04:10:31.396Z,84.84
2018-01-29T04:11:06.693Z,85.41
2018-01-29T04:11:42.194Z,85.17
2018-01-29T04:12:17.794Z,86.65
2018-01-29T04:12:53.221Z,86.18
2018-01-29T04:13:28.738Z,85.70
2018-01-29T04:14:03.931Z,85.60
2018-01-29T04:14:39.533Z,85.60
2018-01-29T04:15:14.836Z,87.89
2018-01-29T04:15:50.041Z,88.60
2018-01-29T04:16:25.438Z,87.98
2018-01-29T04:17:00.564Z,88.03
2018-01-29T04:17:36.063Z,87.93
2018-01-29T04:18:11.699Z,87.70
2018-01-29T04:18:46.998Z,88.03
2018-01-29T04:19:22.401Z,88.51
2018-01-29T04:19:57.912Z,88.46
2018-01-29T04:20:33.417Z,89.17
2018-01-29T04:21:09.019Z,88.65
2018-01-29T04:21:44.411Z,88.56
2018-01-29T04:22:19.610Z,89.22
2018-01-29T04:22:54.938Z,89.07
2018-01-29T04:23:30.064Z,89.84
2018-01-29T04:24:05.397Z,89.65
2018-01-29T04:24:40.699Z,91.27
2018-01-29T04:25:16.012Z,91.74
2018-01-29T04:25:51.315Z,91.27
2018-01-29T04:26:26.518Z,91.55
2018-01-29T04:27:02.111Z,91.55
2018-01-29T04:27:37.716Z,91.17
2018-01-29T04:28:13.072Z,90.79
2018-01-29T04:28:48.392Z,91.55
2018-01-29T04:29:23.598Z,91.27
2018-01-29T04:29:58.694Z,91.08
2018-01-29T04:30:33.799Z,91.17
2018-01-29T04:31:09.202Z,91.70
2018-01-29T04:31:44.625Z,91.65
2018-01-29T04:32:20.024Z,91.94
2018-01-29T04:32:55.026Z,91.55
2018-01-29T04:33:30.597Z,92.03
2018-01-29T04:34:05.784Z,92.89
2018-01-29T04:34:40.896Z,92.79
2018-01-29T04:35:16.295Z,93.08
2018-01-29T04:35:51.699Z,93.08
2018-01-29T04:36:27.115Z,93.37
2018-01-29T04:37:02.526Z,93.65
2018-01-29T04:37:37.928Z,93.46
2018-01-29T04:38:13.229Z,93.37
2018-01-29T04:38:48.253Z,93.37
2018-01-29T04:39:23.378Z,92.98
2018-01-29T04:39:59.080Z,93.55
2018-01-29T04:40:34.084Z,93.37
2018-01-29T04:41:09.390Z,93.46
2018-01-29T04:41:44.700Z,93.08
2018-01-29T04:42:20.300Z,92.79
2018-01-29T04:42:55.697Z,93.08
2018-01-29T04:43:31.197Z,93.08
2018-01-29T04:44:06.630Z,93.55
2018-01-29T04:44:41.969Z,93.55
2018-01-29T04:45:17.459Z,92.89
2018-01-29T04:45:52.661Z,93.84
2018-01-29T04:46:28.060Z,93.08
2018-01-29T04:47:03.657Z,93.74
2018-01-29T04:47:39.157Z,93.17
2018-01-29T04:48:14.571Z,93.65
2018-01-29T04:48:49.865Z,93.65
2018-01-29T04:49:25.071Z,93.27
2018-01-29T04:50:00.202Z,93.46
2018-01-29T04:50:35.406Z,93.27
2018-01-29T04:51:10.706Z,93.74
2018-01-29T04:51:45.702Z,93.46
2018-01-29T04:52:21.305Z,94.51
2018-01-29T04:52:56.616Z,94.51
2018-01-29T04:53:31.935Z,93.84
2018-01-29T04:54:07.540Z,93.46
2018-01-29T04:54:43.139Z,93.46
2018-01-29T04:55:18.968Z,94.32
2018-01-29T04:55:54.371Z,94.03
2018-01-29T04:56:29.672Z,94.22
2018-01-29T04:57:05.191Z,93.65
2018-01-29T04:57:40.581Z,94.60
2018-01-29T04:58:15.679Z,94.32
2018-01-29T04:58:51.101Z,94.13
2018-01-29T04:59:26.601Z,94.60
2018-01-29T05:00:01.705Z,94.41
2018-01-29T05:00:37.545Z,94.13
2018-01-29T05:01:12.955Z,94.22
2018-01-29T05:01:48.348Z,94.41
2018-01-29T05:02:23.950Z,94.41
2018-01-29T05:02:59.249Z,94.51
2018-01-29T05:03:34.450Z,94.03
2018-01-29T05:04:09.776Z,94.79
2018-01-29T05:04:45.071Z,94.03
2018-01-29T05:05:20.571Z,94.51
2018-01-29T05:05:56.201Z,94.60
2018-01-29T05:06:31.504Z,94.89
2018-01-29T05:07:07.006Z,94.60
2018-01-29T05:07:42.503Z,94.51
2018-01-29T05:08:17.811Z,94.70
2018-01-29T05:08:53.116Z,95.56
2018-01-29T05:09:28.443Z,94.79
2018-01-29T05:10:03.851Z,95.36
2018-01-29T05:10:39.360Z,95.27
2018-01-29T05:11:14.691Z,95.17
2018-01-29T05:11:49.902Z,95.65
2018-01-29T05:12:25.099Z,95.17
2018-01-29T05:13:00.101Z,95.17
2018-01-29T05:13:35.504Z,95.46
2018-01-29T05:14:10.712Z,95.94
2018-01-29T05:14:45.917Z,95.36
2018-01-29T05:15:21.215Z,95.56
2018-01-29T05:15:56.630Z,96.03
2018-01-29T05:16:32.059Z,95.08
2018-01-29T05:17:07.542Z,95.94
2018-01-29T05:17:42.628Z,94.89
2018-01-29T05:18:17.925Z,95.36
2018-01-29T05:18:53.144Z,95.75
2018-01-29T05:19:28.342Z,95.94
2018-01-29T05:20:03.742Z,95.36
2018-01-29T05:20:39.238Z,95.27
2018-01-29T05:21:15.145Z,95.94
2018-01-29T05:21:50.370Z,95.08
2018-01-29T05:22:25.867Z,95.27
2018-01-29T05:23:01.264Z,96.22
2018-01-29T05:23:36.870Z,96.03
2018-01-29T05:24:12.403Z,95.56
2018-01-29T05:24:47.501Z,95.84
2018-01-29T05:25:22.896Z,95.56
2018-01-29T05:25:58.197Z,96.03
2018-01-29T05:26:33.492Z,95.65
2018-01-29T05:27:08.917Z,96.12
2018-01-29T05:27:44.422Z,95.46
2018-01-29T05:28:19.625Z,95.65
2018-01-29T05:28:55.248Z,96.22
2018-01-29T05:29:31.198Z,95.84
2018-01-29T05:30:06.393Z,96.03
2018-01-29T05:30:42.788Z,95.75
2018-01-29T05:31:17.898Z,95.84
2018-01-29T05:31:53.397Z,95.65
2018-01-29T05:32:29.021Z,96.12
2018-01-29T05:33:04.256Z,96.32
2018-01-29T05:33:39.554Z,96.22
2018-01-29T05:34:14.770Z,95.75
2018-01-29T05:34:49.873Z,95.94
2018-01-29T05:35:25.064Z,95.36
2018-01-29T05:36:00.257Z,96.12
2018-01-29T05:36:35.563Z,95.84
2018-01-29T05:37:10.962Z,96.12
2018-01-29T05:37:46.404Z,95.84
2018-01-29T05:38:22.026Z,96.32
2018-01-29T05:38:57.316Z,95.94
2018-01-29T05:39:32.526Z,96.12
2018-01-29T05:40:07.853Z,96.70
2018-01-29T05:40:43.133Z,96.32
2018-01-29T05:41:18.340Z,96.60
2018-01-29T05:41:53.937Z,96.70
2018-01-29T05:42:29.643Z,96.12
2018-01-29T05:43:04.868Z,96.22
2018-01-29T05:43:40.068Z,96.12
2018-01-29T05:44:15.389Z,96.12
2018-01-29T05:44:50.786Z,96.32
2018-01-29T05:45:25.983Z,96.22
2018-01-29T05:46:01.282Z,96.32
2018-01-29T05:46:36.585Z,96.22
2018-01-29T05:47:11.992Z,97.08
2018-01-29T05:47:46.990Z,95.94
2018-01-29T05:48:22.716Z,96.98
2018-01-29T05:48:58.038Z,95.65
2018-01-29T05:49:33.557Z,96.32
2018-01-29T05:50:08.952Z,96.41
2018-01-29T05:50:44.253Z,96.89
2018-01-29T05:51:19.657Z,96.32
2018-01-29T05:51:54.962Z,96.41
2018-01-29T05:52:30.561Z,96.22
2018-01-29T05:53:05.784Z,96.12
2018-01-29T05:53:41.326Z,96.22
2018-01-29T05:54:16.526Z,96.12
2018-01-29T05:54:52.258Z,96.22
2018-01-29T05:55:27.949Z,96.80
2018-01-29T05:56:03.152Z,96.98
2018-01-29T05:56:38.851Z,96.32
2018-01-29T05:57:14.149Z,96.32
2018-01-29T05:57:49.644Z,96.89
2018-01-29T05:58:24.941Z,97.08
2018-01-29T05:59:00.269Z,97.08
2018-01-29T05:59:35.572Z,97.17
2018-01-29T06:00:10.997Z,96.32
2018-01-29T06:00:46.489Z,96.89
2018-01-29T06:01:21.794Z,95.75
2018-01-29T06:01:57.093Z,96.32
2018-01-29T06:02:32.203Z,96.80
2018-01-29T06:03:07.404Z,97.17
2018-01-29T06:03:42.704Z,96.80
2018-01-29T06:04:18.236Z,96.41
2018-01-29T06:04:53.637Z,97.27
2018-01-29T06:05:28.937Z,96.41
2018-01-29T06:06:04.241Z,96.22
2018-01-29T06:06:39.339Z,95.94
2018-01-29T06:07:14.444Z,96.41
2018-01-29T06:07:49.640Z,96.03
2018-01-29T06:08:24.891Z,95.94
2018-01-29T06:09:00.131Z,96.51
2018-01-29T06:09:35.547Z,96.80
2018-01-29T06:10:11.143Z,97.17
2018-01-29T06:10:46.344Z,96.80
2018-01-29T06:11:21.950Z,96.60
2018-01-29T06:11:57.140Z,95.75
2018-01-29T06:12:32.639Z,96.80
2018-01-29T06:13:08.033Z,97.27
2018-01-29T06:13:43.426Z,96.89
2018-01-29T06:14:18.639Z,96.98
2018-01-29T06:14:53.889Z,96.70
2018-01-29T06:15:29.309Z,97.46
2018-01-29T06:16:04.311Z,97.17
2018-01-29T06:16:39.508Z,97.46
2018-01-29T06:17:14.603Z,97.27
2018-01-29T06:17:50.102Z,96.60
2018-01-29T06:18:25.424Z,96.70
2018-01-29T06:19:00.922Z,96.70
2018-01-29T06:19:36.322Z,97.46
2018-01-29T06:20:11.873Z,96.70
2018-01-29T06:20:47.483Z,96.22
2018-01-29T06:21:22.570Z,96.51
2018-01-29T06:21:58.061Z,96.70
2018-01-29T06:22:33.403Z,96.80
2018-01-29T06:23:08.792Z,96.89
2018-01-29T06:23:44.290Z,96.70
2018-01-29T06:24:19.679Z,96.89
2018-01-29T06:24:54.985Z,96.89
2018-01-29T06:25:30.437Z,96.89
2018-01-29T06:26:05.938Z,96.89
2018-01-29T06:26:41.440Z,95.94
2018-01-29T06:27:16.731Z,96.89
2018-01-29T06:27:52.124Z,96.98
2018-01-29T06:28:27.613Z,96.80
2018-01-29T06:29:03.212Z,95.84
2018-01-29T06:29:38.500Z,96.80
2018-01-29T06:30:13.705Z,96.51
2018-01-29T06:30:49.358Z,96.70
2018-01-29T06:31:24.548Z,96.80
2018-01-29T06:32:00.152Z,96.89
2018-01-29T06:32:35.448Z,96.80
2018-01-29T06:33:10.576Z,95.94
2018-01-29T06:33:45.867Z,95.75
2018-01-29T06:34:21.094Z,96.80
2018-01-29T06:34:56.493Z,96.51
2018-01-29T06:35:32.215Z,96.70
2018-01-29T06:36:07.438Z,96.70
2018-01-29T06:36:42.652Z,96.98
2018-01-29T06:37:17.845Z,96.70
2018-01-29T06:37:53.062Z,96.70
2018-01-29T06:38:28.257Z,96.89
2018-01-29T06:39:03.681Z,97.36
2018-01-29T06:39:38.974Z,97.27
2018-01-29T06:40:14.300Z,97.08
2018-01-29T06:40:49.696Z,96.41
2018-01-29T06:41:25.148Z,96.51
2018-01-29T06:42:00.473Z,97.46
2018-01-29T06:42:36.251Z,97.27
2018-01-29T06:43:12.656Z,96.51
2018-01-29T06:43:48.083Z,96.98
2018-01-29T06:44:23.381Z,97.27
2018-01-29T06:44:59.096Z,96.98
2018-01-29T06:45:34.793Z,97.65
2018-01-29T06:46:10.128Z,96.98
2018-01-29T06:46:45.244Z,97.27
2018-01-29T06:47:20.472Z,97.36
2018-01-29T06:47:55.763Z,96.98
2018-01-29T06:48:30.985Z,97.56
2018-01-29T06:49:06.481Z,97.08
2018-01-29T06:49:42.208Z,97.27
2018-01-29T06:50:17.496Z,96.98
2018-01-29T06:50:53.151Z,97.27
2018-01-29T06:51:28.616Z,97.36
2018-01-29T06:52:04.072Z,96.98
2018-01-29T06:52:39.273Z,97.27
2018-01-29T06:53:14.946Z,96.80
2018-01-29T06:53:50.192Z,96.80
2018-01-29T06:54:25.916Z,97.27
2018-01-29T06:55:01.408Z,97.17
2018-01-29T06:55:36.937Z,97.17
2018-01-29T06:56:12.479Z,96.70
2018-01-29T06:56:47.753Z,96.70
2018-01-29T06:57:22.976Z,97.27
2018-01-29T06:57:58.297Z,96.80
2018-01-29T06:58:33.786Z,96.60
2018-01-29T06:59:08.901Z,97.27
2018-01-29T06:59:44.492Z,96.98
2018-01-29T07:00:19.919Z,97.17
2018-01-29T07:00:55.310Z,96.89
2018-01-29T07:01:30.619Z,97.65
2018-01-29T07:02:06.058Z,97.27
2018-01-29T07:02:41.248Z,97.17
2018-01-29T07:03:16.540Z,97.36
2018-01-29T07:03:51.849Z,97.27
2018-01-29T07:04:27.233Z,96.98
2018-01-29T07:05:02.464Z,97.08
2018-01-29T07:05:38.037Z,96.89
2018-01-29T07:06:13.256Z,96.60
2018-01-29T07:06:48.447Z,97.27
2018-01-29T07:07:23.798Z,96.89
2018-01-29T07:07:59.281Z,96.41
2018-01-29T07:08:34.991Z,96.51
2018-01-29T07:09:10.376Z,97.56
2018-01-29T07:09:45.987Z,96.51
2018-01-29T07:10:21.367Z,95.94
2018-01-29T07:10:56.523Z,96.80
2018-01-29T07:11:31.802Z,96.80
2018-01-29T07:12:07.316Z,95.94
2018-01-29T07:12:42.624Z,96.03
2018-01-29T07:13:18.261Z,96.60
2018-01-29T07:13:53.539Z,96.80
2018-01-29T07:14:28.846Z,95.94
2018-01-29T07:15:04.029Z,95.94
2018-01-29T07:15:39.255Z,96.51
2018-01-29T07:16:14.533Z,96.70
2018-01-29T07:16:49.642Z,96.70
2018-01-29T07:17:25.127Z,96.80
2018-01-29T07:18:00.577Z,96.51
2018-01-29T07:18:36.264Z,95.75
2018-01-29T07:19:11.576Z,96.32
2018-01-29T07:19:46.771Z,96.80
2018-01-29T07:20:21.977Z,96.70
2018-01-29T07:20:57.056Z,97.27
2018-01-29T07:21:32.371Z,97.36
2018-01-29T07:22:08.154Z,96.98
2018-01-29T07:22:43.375Z,96.89
2018-01-29T07:23:18.689Z,96.60
2018-01-29T07:23:54.001Z,96.70
2018-01-29T07:24:29.198Z,96.12
2018-01-29T07:25:04.513Z,96.60
2018-01-29T07:25:39.903Z,97.46
2018-01-29T07:26:15.306Z,96.51
2018-01-29T07:26:50.795Z,96.80
2018-01-29T07:27:26.119Z,95.94
2018-01-29T07:28:01.129Z,96.60
2018-01-29T07:28:36.452Z,96.03
2018-01-29T07:29:11.639Z,95.84
2018-01-29T07:29:46.757Z,96.51
2018-01-29T07:30:22.278Z,97.17
2018-01-29T07:30:57.301Z,97.27
2018-01-29T07:31:32.584Z,96.89
2018-01-29T07:32:07.893Z,96.51
2018-01-29T07:32:43.374Z,96.22
2018-01-29T07:33:20.322Z,96.51
2018-01-29T07:33:55.806Z,96.60
2018-01-29T07:34:31.122Z,96.89
2018-01-29T07:35:06.514Z,97.46
2018-01-29T07:35:42.121Z,97.27